createdAt,value
2023-02-11T00:00:08.860Z,1011.06
2023-02-11T00:01:10.083Z,1011.08
2023-02-11T00:02:11.279Z,1011.07
2023-02-11T00:03:12.893Z,1011.08
2023-02-11T00:04:14.324Z,1011.06
2023-02-11T00:05:15.348Z,1011.06
2023-02-11T00:06:16.542Z,1011.11
2023-02-11T00:07:17.742Z,1011.14
2023-02-11T00:08:18.947Z,1011.13
2023-02-11T00:09:20.144Z,1011.07
2023-02-11T00:10:21.580Z,1011.14
2023-02-11T00:11:22.781Z,1011.09
2023-02-11T00:12:23.991Z,1011.06
2023-02-11T00:13:25.667Z,1011.05
2023-02-11T00:14:26.748Z,1011.06
2023-02-11T00:15:28.306Z,1011.06
2023-02-11T00:16:29.604Z,1011.09
2023-02-11T00:17:31.067Z,1011.11
2023-02-11T00:18:32.419Z,1011.09
2023-02-11T00:19:33.591Z,1011.08
2023-02-11T00:20:34.670Z,1011.03
2023-02-11T00:21:36.036Z,1011.06
2023-02-11T00:22:37.313Z,1011.1
2023-02-11T00:23:38.509Z,1011.09
2023-02-11T00:24:39.844Z,1011.09
2023-02-11T00:25:40.911Z,1011.09
2023-02-11T00:26:42.001Z,1011.04
2023-02-11T00:27:43.073Z,1011.07
2023-02-11T00:28:44.165Z,1011.09
2023-02-11T00:29:45.473Z,1011.1
2023-02-11T00:30:47.213Z,1011.13
2023-02-11T00:31:49.219Z,1011.12
2023-02-11T00:32:50.519Z,1011.12
2023-02-11T00:33:52.072Z,1011.1
2023-02-11T00:34:53.402Z,1011.08
2023-02-11T00:35:54.756Z,1011.05
2023-02-11T00:36:55.797Z,1011.1
2023-02-11T00:37:57.128Z,1011.07
2023-02-11T00:38:58.139Z,1011.09
2023-02-11T00:39:59.519Z,1011.08
2023-02-11T00:41:00.729Z,1011.04
2023-02-11T00:42:01.795Z,1011.01
2023-02-11T00:43:02.996Z,1011.03
2023-02-11T00:44:04.201Z,1010.98
2023-02-11T00:45:05.651Z,1010.95
2023-02-11T00:46:07.260Z,1010.96
2023-02-11T00:47:08.548Z,1010.96
2023-02-11T00:48:09.837Z,1010.94
2023-02-11T00:49:11.066Z,1010.99
2023-02-11T00:50:12.280Z,1010.92
2023-02-11T00:51:13.487Z,1010.92
2023-02-11T00:52:14.759Z,1010.9
2023-02-11T00:53:15.779Z,1010.91
2023-02-11T00:54:17.091Z,1010.99
2023-02-11T00:55:18.244Z,1010.92
2023-02-11T00:56:19.566Z,1010.92
2023-02-11T00:57:20.696Z,1010.93
2023-02-11T00:58:21.723Z,1010.94
2023-02-11T00:59:22.931Z,1010.92
2023-02-11T01:00:24.302Z,1010.93
2023-02-11T01:01:25.881Z,1011
2023-02-11T01:02:27.210Z,1011.03
2023-02-11T01:03:28.510Z,1011.04
2023-02-11T01:04:29.766Z,1011.01
2023-02-11T01:05:31.161Z,1011.04
2023-02-11T01:06:32.571Z,1011.01
2023-02-11T01:07:33.779Z,1011.01
2023-02-11T01:08:35.107Z,1010.99
2023-02-11T01:09:36.375Z,1010.98
2023-02-11T01:10:37.693Z,1010.97
2023-02-11T01:11:39.021Z,1010.94
2023-02-11T01:12:40.220Z,1010.98
2023-02-11T01:13:41.541Z,1010.91
2023-02-11T01:14:42.735Z,1010.9
2023-02-11T01:15:43.954Z,1010.9
2023-02-11T01:16:45.138Z,1010.83
2023-02-11T01:17:46.279Z,1010.84
2023-02-11T01:18:47.713Z,1010.84
2023-02-11T01:19:48.905Z,1010.82
2023-02-11T01:20:50.115Z,1010.83
2023-02-11T01:21:51.385Z,1010.82
2023-02-11T01:22:52.463Z,1010.76
2023-02-11T01:23:53.691Z,1010.73
2023-02-11T01:24:54.907Z,1010.72
2023-02-11T01:25:56.186Z,1010.69
2023-02-11T01:26:57.506Z,1010.63
2023-02-11T01:27:58.792Z,1010.63
2023-02-11T01:29:00.051Z,1010.58
2023-02-11T01:30:01.182Z,1010.62
2023-02-11T01:31:02.773Z,1010.6
2023-02-11T01:32:04.123Z,1010.64
2023-02-11T01:33:05.508Z,1010.64
2023-02-11T01:34:06.752Z,1010.65
2023-02-11T01:35:08.101Z,1010.66
2023-02-11T01:36:09.537Z,1010.59
2023-02-11T01:37:10.838Z,1010.63
2023-02-11T01:38:12.278Z,1010.62
2023-02-11T01:39:13.476Z,1010.63
2023-02-11T01:40:14.675Z,1010.67
2023-02-11T01:41:15.886Z,1010.66
2023-02-11T01:42:17.113Z,1010.64
2023-02-11T01:43:18.213Z,1010.65
2023-02-11T01:44:19.510Z,1010.68
2023-02-11T01:45:20.711Z,1010.65
2023-02-11T01:46:22.164Z,1010.66
2023-02-11T01:47:23.489Z,1010.62
2023-02-11T01:48:24.663Z,1010.66
2023-02-11T01:49:26.207Z,1010.61
2023-02-11T01:50:27.560Z,1010.64
2023-02-11T01:51:28.847Z,1010.68
2023-02-11T01:52:30.213Z,1010.63
2023-02-11T01:53:31.519Z,1010.65
2023-02-11T01:54:32.566Z,1010.64
2023-02-11T01:55:33.706Z,1010.61
2023-02-11T01:56:35.024Z,1010.61
2023-02-11T01:57:36.404Z,1010.56
2023-02-11T01:58:37.729Z,1010.56
2023-02-11T01:59:39.292Z,1010.59
2023-02-11T02:00:40.488Z,1010.6
2023-02-11T02:01:42.012Z,1010.57
2023-02-11T02:02:43.255Z,1010.58
2023-02-11T02:03:44.562Z,1010.6
2023-02-11T02:04:46.060Z,1010.53
2023-02-11T02:05:47.266Z,1010.52
2023-02-11T02:06:48.537Z,1010.49
2023-02-11T02:07:49.614Z,1010.48
2023-02-11T02:08:50.813Z,1010.43
2023-02-11T02:09:52.061Z,1010.43
2023-02-11T02:10:53.094Z,1010.42
2023-02-11T02:11:54.413Z,1010.44
2023-02-11T02:12:55.736Z,1010.42
2023-02-11T02:13:57.052Z,1010.46
2023-02-11T02:14:58.493Z,1010.4
2023-02-11T02:15:59.974Z,1010.42
2023-02-11T02:17:01.377Z,1010.39
2023-02-11T02:18:02.845Z,1010.36
2023-02-11T02:19:04.401Z,1010.36
2023-02-11T02:20:05.694Z,1010.37
2023-02-11T02:21:07.135Z,1010.38
2023-02-11T02:22:08.271Z,1010.4
2023-02-11T02:23:09.537Z,1010.43
2023-02-11T02:24:14.514Z,1010.42
2023-02-11T02:25:12.656Z,1010.34
2023-02-11T02:26:13.975Z,1010.37
2023-02-11T02:27:15.353Z,1010.33
2023-02-11T02:28:16.853Z,1010.32
2023-02-11T02:29:18.232Z,1010.32
2023-02-11T02:30:19.620Z,1010.3
2023-02-11T02:31:20.984Z,1010.28
2023-02-11T02:32:22.502Z,1010.3
2023-02-11T02:33:24.042Z,1010.31
2023-02-11T02:34:25.458Z,1010.22
2023-02-11T02:35:26.817Z,1010.22
2023-02-11T02:36:27.959Z,1010.24
2023-02-11T02:37:29.350Z,1010.15
2023-02-11T02:38:30.663Z,1010.15
2023-02-11T02:39:31.863Z,1010.17
2023-02-11T02:40:33.064Z,1010.17
2023-02-11T02:41:34.511Z,1010.18
2023-02-11T02:42:35.865Z,1010.19
2023-02-11T02:43:37.025Z,1010.18
2023-02-11T02:44:38.344Z,1010.16
2023-02-11T02:45:39.785Z,1010.11
2023-02-11T02:46:41.409Z,1010.1
2023-02-11T02:47:42.727Z,1010.16
2023-02-11T02:48:44.004Z,1010.14
2023-02-11T02:49:45.458Z,1010.16
2023-02-11T02:50:46.807Z,1010.11
2023-02-11T02:51:48.107Z,1010.1
2023-02-11T02:52:49.330Z,1010.09
2023-02-11T02:53:50.594Z,1010.1
2023-02-11T02:54:51.845Z,1010.02
2023-02-11T02:55:53.356Z,1010.06
2023-02-11T02:56:54.795Z,1009.99
2023-02-11T02:57:56.119Z,1010.01
2023-02-11T02:58:57.477Z,1009.95
2023-02-11T02:59:58.769Z,1009.91
2023-02-11T03:01:00.405Z,1009.91
2023-02-11T03:02:01.646Z,1009.88
2023-02-11T03:03:03.217Z,1009.84
2023-02-11T03:04:04.782Z,1009.87
2023-02-11T03:05:06.235Z,1009.8
2023-02-11T03:06:07.696Z,1009.9
2023-02-11T03:07:08.963Z,1009.88
2023-02-11T03:08:10.220Z,1009.91
2023-02-11T03:09:12.255Z,1009.93
2023-02-11T03:10:13.525Z,1009.97
2023-02-11T03:11:15.205Z,1009.89
2023-02-11T03:12:16.359Z,1009.86
2023-02-11T03:13:17.763Z,1009.87
2023-02-11T03:14:19.200Z,1009.88
2023-02-11T03:15:20.606Z,1009.84
2023-02-11T03:16:22.425Z,1009.89
2023-02-11T03:17:23.776Z,1009.85
2023-02-11T03:18:25.049Z,1009.82
2023-02-11T03:19:26.250Z,1009.88
2023-02-11T03:20:27.516Z,1009.87
2023-02-11T03:21:28.659Z,1009.85
2023-02-11T03:22:29.857Z,1009.81
2023-02-11T03:23:31.221Z,1009.9
2023-02-11T03:24:32.493Z,1009.91
2023-02-11T03:25:33.693Z,1009.86
2023-02-11T03:26:34.952Z,1009.88
2023-02-11T03:27:36.215Z,1009.87
2023-02-11T03:28:37.699Z,1009.84
2023-02-11T03:29:38.911Z,1009.8
2023-02-11T03:30:40.103Z,1009.81
2023-02-11T03:31:42.011Z,1009.82
2023-02-11T03:32:43.438Z,1009.86
2023-02-11T03:33:44.498Z,1009.87
2023-02-11T03:34:45.850Z,1009.88
2023-02-11T03:35:47.330Z,1009.82
2023-02-11T03:36:48.731Z,1009.87
2023-02-11T03:37:50.142Z,1009.88
2023-02-11T03:38:51.257Z,1009.85
2023-02-11T03:39:52.595Z,1009.89
2023-02-11T03:40:53.864Z,1009.89
2023-02-11T03:41:55.103Z,1009.91
2023-02-11T03:42:56.324Z,1009.93
2023-02-11T03:43:57.639Z,1009.9
2023-02-11T03:44:59.028Z,1009.94
2023-02-11T03:46:00.764Z,1009.92
2023-02-11T03:47:02.154Z,1009.91
2023-02-11T03:48:03.416Z,1009.88
2023-02-11T03:49:04.790Z,1009.91
2023-02-11T03:50:05.909Z,1009.93
2023-02-11T03:51:07.217Z,1009.87
2023-02-11T03:52:08.680Z,1009.91
2023-02-11T03:53:09.952Z,1009.96
2023-02-11T03:54:11.154Z,1009.88
2023-02-11T03:55:12.355Z,1009.89
2023-02-11T03:56:13.552Z,1009.88
2023-02-11T03:57:14.877Z,1009.89
2023-02-11T03:58:16.076Z,1009.86
2023-02-11T03:59:17.275Z,1009.87
2023-02-11T04:00:18.474Z,1009.86
2023-02-11T04:01:19.943Z,1009.87
2023-02-11T04:02:21.358Z,1009.87
2023-02-11T04:03:22.993Z,1009.91
2023-02-11T04:04:24.305Z,1009.84
2023-02-11T04:05:25.490Z,1009.89
2023-02-11T04:06:26.785Z,1009.84
2023-02-11T04:07:28.225Z,1009.92
2023-02-11T04:08:29.549Z,1009.9
2023-02-11T04:09:30.961Z,1009.93
2023-02-11T04:10:32.164Z,1009.92
2023-02-11T04:11:33.515Z,1009.93
2023-02-11T04:12:34.806Z,1009.93
2023-02-11T04:13:36.001Z,1009.97
2023-02-11T04:14:37.445Z,1010.02
2023-02-11T04:15:39.011Z,1010.03
2023-02-11T04:16:40.486Z,1010.02
2023-02-11T04:17:41.771Z,1010.06
2023-02-11T04:18:43.125Z,1010.06
2023-02-11T04:19:44.218Z,1010.13
2023-02-11T04:20:45.495Z,1010.15
2023-02-11T04:21:46.836Z,1010.13
2023-02-11T04:22:48.278Z,1010.13
2023-02-11T04:23:49.622Z,1010.18
2023-02-11T04:24:50.649Z,1010.18
2023-02-11T04:25:53.083Z,1010.26
2023-02-11T04:26:54.424Z,1010.25
2023-02-11T04:27:55.948Z,1010.19
2023-02-11T04:28:57.072Z,1010.21
2023-02-11T04:29:58.336Z,1010.21
2023-02-11T04:30:59.923Z,1010.25
2023-02-11T04:32:01.557Z,1010.23
2023-02-11T04:33:02.895Z,1010.23
2023-02-11T04:34:04.219Z,1010.2
2023-02-11T04:35:05.417Z,1010.2
2023-02-11T04:36:06.619Z,1010.21
2023-02-11T04:37:07.891Z,1010.18
2023-02-11T04:38:09.258Z,1010.2
2023-02-11T04:39:10.582Z,1010.17
2023-02-11T04:40:12.044Z,1010.2
2023-02-11T04:41:13.513Z,1010.19
2023-02-11T04:42:14.720Z,1010.14
2023-02-11T04:43:16.041Z,1010.14
2023-02-11T04:44:17.420Z,1010.16
2023-02-11T04:45:18.746Z,1010.19
2023-02-11T04:46:20.219Z,1010.19
2023-02-11T04:47:21.537Z,1010.18
2023-02-11T04:48:22.948Z,1010.13
2023-02-11T04:49:24.189Z,1010.18
2023-02-11T04:50:25.225Z,1010.13
2023-02-11T04:51:26.695Z,1010.12
2023-02-11T04:52:28.137Z,1010.1
2023-02-11T04:53:29.547Z,1010.13
2023-02-11T04:54:30.914Z,1010.12
2023-02-11T04:55:32.217Z,1010.13
2023-02-11T04:56:33.633Z,1010.13
2023-02-11T04:57:34.992Z,1010.11
2023-02-11T04:58:36.276Z,1010.08
2023-02-11T04:59:37.404Z,1010.07
2023-02-11T05:00:38.672Z,1010.07
2023-02-11T05:01:40.125Z,1010.04
2023-02-11T05:02:41.431Z,1010.05
2023-02-11T05:03:42.824Z,1010.03
2023-02-11T05:04:43.995Z,1010.02
2023-02-11T05:05:45.325Z,1010.06
2023-02-11T05:06:46.599Z,1010.05
2023-02-11T05:07:47.983Z,1010.02
2023-02-11T05:08:49.235Z,1010.01
2023-02-11T05:09:50.569Z,1009.96
2023-02-11T05:10:51.877Z,1009.97
2023-02-11T05:11:53.318Z,1009.96
2023-02-11T05:12:56.438Z,1009.97
2023-02-11T05:13:57.572Z,1009.94
2023-02-11T05:14:58.840Z,1009.9
2023-02-11T05:16:00.165Z,1009.87
2023-02-11T05:17:01.776Z,1009.86
2023-02-11T05:18:03.052Z,1009.85
2023-02-11T05:19:04.418Z,1009.78
2023-02-11T05:20:05.496Z,1009.74
2023-02-11T05:21:06.641Z,1009.73
2023-02-11T05:22:07.770Z,1009.69
2023-02-11T05:23:09.199Z,1009.61
2023-02-11T05:24:10.605Z,1009.57
2023-02-11T05:25:11.924Z,1009.58
2023-02-11T05:26:13.164Z,1009.52
2023-02-11T05:27:14.445Z,1009.52
2023-02-11T05:28:15.919Z,1009.49
2023-02-11T05:29:17.383Z,1009.46
2023-02-11T05:30:18.769Z,1009.47
2023-02-11T05:31:20.267Z,1009.46
2023-02-11T05:32:21.410Z,1009.42
2023-02-11T05:33:22.740Z,1009.41
2023-02-11T05:34:23.937Z,1009.36
2023-02-11T05:35:25.371Z,1009.36
2023-02-11T05:36:26.611Z,1009.39
2023-02-11T05:37:28.044Z,1009.4
2023-02-11T05:38:29.364Z,1009.43
2023-02-11T05:39:30.779Z,1009.37
2023-02-11T05:40:32.156Z,1009.39
2023-02-11T05:41:33.297Z,1009.4
2023-02-11T05:42:34.493Z,1009.36
2023-02-11T05:43:35.935Z,1009.41
2023-02-11T05:44:37.618Z,1009.38
2023-02-11T05:45:38.993Z,1009.4
2023-02-11T05:46:40.829Z,1009.47
2023-02-11T05:47:42.230Z,1009.46
2023-02-11T05:48:43.430Z,1009.48
2023-02-11T05:49:44.579Z,1009.54
2023-02-11T05:50:45.901Z,1009.47
2023-02-11T05:51:47.632Z,1009.46
2023-02-11T05:52:49.500Z,1009.43
2023-02-11T05:53:50.896Z,1009.46
2023-02-11T05:54:52.192Z,1009.48
2023-02-11T05:55:53.827Z,1009.43
2023-02-11T05:56:55.181Z,1009.39
2023-02-11T05:57:56.401Z,1009.37
2023-02-11T05:58:57.784Z,1009.42
2023-02-11T05:59:59.226Z,1009.4
2023-02-11T06:01:00.425Z,1009.33
2023-02-11T06:02:01.746Z,1009.31
2023-02-11T06:03:02.992Z,1009.32
2023-02-11T06:04:04.440Z,1009.35
2023-02-11T06:05:05.962Z,1009.37
2023-02-11T06:06:07.424Z,1009.4
2023-02-11T06:07:08.760Z,1009.35
2023-02-11T06:08:10.043Z,1009.32
2023-02-11T06:09:11.258Z,1009.34
2023-02-11T06:10:12.579Z,1009.32
2023-02-11T06:11:13.871Z,1009.35
2023-02-11T06:12:15.072Z,1009.28
2023-02-11T06:13:16.278Z,1009.37
2023-02-11T06:14:17.475Z,1009.4
2023-02-11T06:15:18.913Z,1009.52
2023-02-11T06:16:20.403Z,1009.56
2023-02-11T06:17:21.676Z,1009.56
2023-02-11T06:18:22.964Z,1009.6
2023-02-11T06:19:24.195Z,1009.62
2023-02-11T06:20:25.758Z,1009.53
2023-02-11T06:21:44.961Z,1009.54
2023-02-11T06:22:27.256Z,1009.57
2023-02-11T06:23:30.945Z,1009.51
2023-02-11T06:25:02.575Z,1009.51
2023-02-11T06:25:31.938Z,1009.56
2023-02-11T06:26:33.084Z,1009.56
2023-02-11T06:27:34.457Z,1009.58
2023-02-11T06:28:36.139Z,1009.59
2023-02-11T06:29:37.648Z,1009.59
2023-02-11T06:30:39.083Z,1009.58
2023-02-11T06:31:41.025Z,1009.54
2023-02-11T06:32:46.923Z,1009.58
2023-02-11T06:33:45.100Z,1009.52
2023-02-11T06:34:46.214Z,1009.57
2023-02-11T06:35:47.486Z,1009.54
2023-02-11T06:36:48.928Z,1009.48
2023-02-11T06:37:50.127Z,1009.48
2023-02-11T06:38:51.569Z,1009.54
2023-02-11T06:39:52.889Z,1009.58
2023-02-11T06:40:54.241Z,1009.57
2023-02-11T06:41:55.901Z,1009.5
2023-02-11T06:42:57.091Z,1009.56
2023-02-11T06:43:58.534Z,1009.58
2023-02-11T06:44:59.906Z,1009.62
2023-02-11T06:46:01.106Z,1009.59
2023-02-11T06:47:02.379Z,1009.59
2023-02-11T06:48:03.823Z,1009.59
2023-02-11T06:49:05.155Z,1009.59
2023-02-11T06:50:06.699Z,1009.6
2023-02-11T06:51:08.017Z,1009.64
2023-02-11T06:52:10.537Z,1009.66
2023-02-11T06:53:11.910Z,1009.64
2023-02-11T06:54:13.183Z,1009.63
2023-02-11T06:55:14.314Z,1009.67
2023-02-11T06:56:15.725Z,1009.68
2023-02-11T06:57:17.156Z,1009.66
2023-02-11T06:58:18.630Z,1009.62
2023-02-11T06:59:20.023Z,1009.64
2023-02-11T07:00:21.231Z,1009.62
2023-02-11T07:01:23.385Z,1009.62
2023-02-11T07:02:24.964Z,1009.67
2023-02-11T07:03:26.385Z,1009.69
2023-02-11T07:04:27.584Z,1009.7
2023-02-11T07:05:28.725Z,1009.73
2023-02-11T07:06:30.007Z,1009.68
2023-02-11T07:07:34.926Z,1009.68
2023-02-11T07:08:32.987Z,1009.72
2023-02-11T07:09:34.358Z,1009.71
2023-02-11T07:10:35.630Z,1009.68
2023-02-11T07:11:37.038Z,1009.68
2023-02-11T07:12:38.193Z,1009.74
2023-02-11T07:13:39.473Z,1009.7
2023-02-11T07:14:40.689Z,1009.66
2023-02-11T07:15:41.991Z,1009.72
2023-02-11T07:16:43.194Z,1009.73
2023-02-11T07:17:44.669Z,1009.7
2023-02-11T07:18:48.722Z,1009.74
2023-02-11T07:19:46.795Z,1009.71
2023-02-11T07:20:48.143Z,1009.7
2023-02-11T07:21:49.448Z,1009.68
2023-02-11T07:22:50.785Z,1009.65
2023-02-11T07:23:52.239Z,1009.65
2023-02-11T07:24:53.582Z,1009.68
2023-02-11T07:25:54.959Z,1009.7
2023-02-11T07:26:56.247Z,1009.68
2023-02-11T07:27:57.856Z,1009.65
2023-02-11T07:28:59.160Z,1009.63
2023-02-11T07:30:00.492Z,1009.62
2023-02-11T07:31:02.523Z,1009.58
2023-02-11T07:32:04.124Z,1009.56
2023-02-11T07:33:05.457Z,1009.51
2023-02-11T07:34:06.606Z,1009.56
2023-02-11T07:35:07.980Z,1009.53
2023-02-11T07:36:09.129Z,1009.55
2023-02-11T07:37:10.262Z,1009.57
2023-02-11T07:38:11.580Z,1009.59
2023-02-11T07:39:12.727Z,1009.6
2023-02-11T07:40:14.054Z,1009.6
2023-02-11T07:41:15.605Z,1009.57
2023-02-11T07:42:17.003Z,1009.63
2023-02-11T07:43:18.181Z,1009.62
2023-02-11T07:44:19.209Z,1009.7
2023-02-11T07:45:20.682Z,1009.69
2023-02-11T07:46:22.148Z,1009.7
2023-02-11T07:47:23.288Z,1009.73
2023-02-11T07:48:24.610Z,1009.71
2023-02-11T07:49:25.989Z,1009.73
2023-02-11T07:50:27.397Z,1009.7
2023-02-11T07:51:28.462Z,1009.65
2023-02-11T07:52:29.902Z,1009.68
2023-02-11T07:53:31.215Z,1009.62
2023-02-11T07:54:32.668Z,1009.58
2023-02-11T07:55:33.974Z,1009.56
2023-02-11T07:56:35.172Z,1009.57
2023-02-11T07:57:36.429Z,1009.53
2023-02-11T07:58:37.616Z,1009.51
2023-02-11T07:59:38.658Z,1009.52
2023-02-11T08:00:40.131Z,1009.56
2023-02-11T08:01:41.295Z,1009.56
2023-02-11T08:02:42.764Z,1009.55
2023-02-11T08:03:43.755Z,1009.57
2023-02-11T08:04:44.778Z,1009.52
2023-02-11T08:05:46.098Z,1009.49
2023-02-11T08:06:47.459Z,1009.48
2023-02-11T08:07:48.619Z,1009.54
2023-02-11T08:08:49.942Z,1009.56
2023-02-11T08:09:51.527Z,1009.54
2023-02-11T08:10:53.307Z,1009.54
2023-02-11T08:11:54.517Z,1009.49
2023-02-11T08:12:55.967Z,1009.51
2023-02-11T08:13:57.385Z,1009.56
2023-02-11T08:14:58.713Z,1009.47
2023-02-11T08:16:00.091Z,1009.52
2023-02-11T08:17:01.544Z,1009.45
2023-02-11T08:18:02.903Z,1009.47
2023-02-11T08:19:04.225Z,1009.47
2023-02-11T08:20:05.481Z,1009.45
2023-02-11T08:21:06.683Z,1009.48
2023-02-11T08:22:07.974Z,1009.48
2023-02-11T08:23:09.145Z,1009.51
2023-02-11T08:24:10.253Z,1009.51
2023-02-11T08:25:11.547Z,1009.51
2023-02-11T08:26:13.020Z,1009.46
2023-02-11T08:27:14.353Z,1009.47
2023-02-11T08:28:15.855Z,1009.47
2023-02-11T08:29:17.548Z,1009.48
2023-02-11T08:30:18.753Z,1009.52
2023-02-11T08:31:20.748Z,1009.59
2023-02-11T08:32:22.651Z,1009.56
2023-02-11T08:33:23.962Z,1009.58
2023-02-11T08:34:25.155Z,1009.65
2023-02-11T08:35:26.436Z,1009.63
2023-02-11T08:36:27.996Z,1009.7
2023-02-11T08:37:33.394Z,1009.72
2023-02-11T08:38:31.295Z,1009.74
2023-02-11T08:39:32.675Z,1009.66
2023-02-11T08:40:33.921Z,1009.68
2023-02-11T08:41:35.135Z,1009.65
2023-02-11T08:42:36.277Z,1009.65
2023-02-11T08:43:37.381Z,1009.65
2023-02-11T08:44:38.588Z,1009.64
2023-02-11T08:45:40.302Z,1009.66
2023-02-11T08:46:41.368Z,1009.68
2023-02-11T08:47:42.519Z,1009.66
2023-02-11T08:48:43.968Z,1009.6
2023-02-11T08:49:45.323Z,1009.61
2023-02-11T08:50:46.603Z,1009.57
2023-02-11T08:51:47.924Z,1009.62
2023-02-11T08:52:49.244Z,1009.59
2023-02-11T08:53:50.572Z,1009.55
2023-02-11T08:54:51.761Z,1009.53
2023-02-11T08:55:53.542Z,1009.56
2023-02-11T08:56:54.895Z,1009.56
2023-02-11T08:57:56.131Z,1009.57
2023-02-11T08:58:57.310Z,1009.54
2023-02-11T08:59:58.846Z,1009.5
2023-02-11T09:01:00.545Z,1009.5
2023-02-11T09:02:01.841Z,1009.47
2023-02-11T09:03:03.048Z,1009.43
2023-02-11T09:04:04.614Z,1009.43
2023-02-11T09:05:06.107Z,1009.46
2023-02-11T09:06:07.249Z,1009.49
2023-02-11T09:07:08.457Z,1009.45
2023-02-11T09:08:09.812Z,1009.52
2023-02-11T09:09:10.973Z,1009.57
2023-02-11T09:10:12.182Z,1009.52
2023-02-11T09:11:13.613Z,1009.55
2023-02-11T09:12:14.855Z,1009.57
2023-02-11T09:13:16.137Z,1009.58
2023-02-11T09:14:17.357Z,1009.6
2023-02-11T09:15:18.414Z,1009.6
2023-02-11T09:16:20.081Z,1009.6
2023-02-11T09:17:21.417Z,1009.59
2023-02-11T09:18:22.786Z,1009.57
2023-02-11T09:19:24.061Z,1009.62
2023-02-11T09:20:25.409Z,1009.54
2023-02-11T09:21:26.833Z,1009.47
2023-02-11T09:22:27.950Z,1009.47
2023-02-11T09:23:29.100Z,1009.39
2023-02-11T09:24:30.330Z,1009.39
2023-02-11T09:25:31.504Z,1009.35
2023-02-11T09:26:32.966Z,1009.35
2023-02-11T09:27:34.384Z,1009.33
2023-02-11T09:28:36.086Z,1009.32
2023-02-11T09:29:37.531Z,1009.3
2023-02-11T09:30:39.142Z,1009.33
2023-02-11T09:31:41.019Z,1009.26
2023-02-11T09:32:42.244Z,1009.28
2023-02-11T09:33:43.508Z,1009.22
2023-02-11T09:34:44.711Z,1009.18
2023-02-11T09:35:45.789Z,1009.17
2023-02-11T09:36:46.988Z,1009.2
2023-02-11T09:37:48.311Z,1009.23
2023-02-11T09:38:49.512Z,1009.21
2023-02-11T09:39:50.878Z,1009.19
2023-02-11T09:40:52.992Z,1009.17
2023-02-11T09:41:54.317Z,1009.18
2023-02-11T09:43:04.288Z,1009.17
2023-02-11T09:43:56.126Z,1009.17
2023-02-11T09:44:57.275Z,1009.1
2023-02-11T09:45:58.910Z,1009.15
2023-02-11T09:47:00.251Z,1009.16
2023-02-11T09:48:02.403Z,1009.12
2023-02-11T09:49:04.581Z,1009.18
2023-02-11T09:50:05.844Z,1009.18
2023-02-11T09:51:07.278Z,1009.2
2023-02-11T09:52:08.600Z,1009.17
2023-02-11T09:53:09.682Z,1009.16
2023-02-11T09:54:11.123Z,1009.13
2023-02-11T09:55:12.561Z,1009.16
2023-02-11T09:56:14.133Z,1009.14
2023-02-11T09:57:29.613Z,1009.2
2023-02-11T09:58:18.137Z,1009.17
2023-02-11T09:59:19.314Z,1009.22
2023-02-11T10:00:20.674Z,1009.24
2023-02-11T10:01:22.171Z,1009.24
2023-02-11T10:02:23.731Z,1009.26
2023-02-11T10:03:24.746Z,1009.26
2023-02-11T10:04:26.202Z,1009.24
2023-02-11T10:05:27.727Z,1009.24
2023-02-11T10:06:28.942Z,1009.25
2023-02-11T10:07:30.095Z,1009.24
2023-02-11T10:08:31.416Z,1009.27
2023-02-11T10:09:32.859Z,1009.24
2023-02-11T10:10:34.172Z,1009.28
2023-02-11T10:11:35.493Z,1009.3
2023-02-11T10:12:36.712Z,1009.29
2023-02-11T10:13:37.691Z,1009.26
2023-02-11T10:14:38.859Z,1009.31
2023-02-11T10:15:40.115Z,1009.26
2023-02-11T10:16:41.300Z,1009.27
2023-02-11T10:17:42.581Z,1009.29
2023-02-11T10:18:44.243Z,1009.26
2023-02-11T10:19:45.763Z,1009.29
2023-02-11T10:20:47.019Z,1009.24
2023-02-11T10:21:48.344Z,1009.25
2023-02-11T10:22:49.443Z,1009.18
2023-02-11T10:23:50.746Z,1009.17
2023-02-11T10:24:52.116Z,1009.17
2023-02-11T10:25:53.446Z,1009.18
2023-02-11T10:26:54.521Z,1009.22
2023-02-11T10:27:55.546Z,1009.19
2023-02-11T10:28:56.777Z,1009.16
2023-02-11T10:29:57.948Z,1009.21
2023-02-11T10:31:00.260Z,1009.2
2023-02-11T10:32:01.947Z,1009.22
2023-02-11T10:33:03.141Z,1009.3
2023-02-11T10:34:04.191Z,1009.26
2023-02-11T10:35:05.450Z,1009.27
2023-02-11T10:36:06.762Z,1009.25
2023-02-11T10:37:08.085Z,1009.23
2023-02-11T10:38:09.536Z,1009.23
2023-02-11T10:39:10.915Z,1009.21
2023-02-11T10:40:12.238Z,1009.17
2023-02-11T10:41:13.554Z,1009.18
2023-02-11T10:42:14.767Z,1009.15
2023-02-11T10:43:15.960Z,1009.09
2023-02-11T10:44:17.517Z,1009.11
2023-02-11T10:45:18.758Z,1009.12
2023-02-11T10:46:20.169Z,1009.1
2023-02-11T10:47:21.358Z,1009.11
2023-02-11T10:48:22.676Z,1009.1
2023-02-11T10:49:23.801Z,1009.08
2023-02-11T10:50:25.080Z,1009
2023-02-11T10:51:26.169Z,1009
2023-02-11T10:52:27.402Z,1009
2023-02-11T10:53:28.919Z,1008.98
2023-02-11T10:54:30.489Z,1008.94
2023-02-11T10:55:31.681Z,1008.94
2023-02-11T10:56:32.895Z,1008.9
2023-02-11T10:57:34.133Z,1008.86
2023-02-11T10:58:35.534Z,1008.81
2023-02-11T10:59:36.843Z,1008.84
2023-02-11T11:00:38.311Z,1008.8
2023-02-11T11:01:39.703Z,1008.84
2023-02-11T11:02:41.043Z,1008.77
2023-02-11T11:03:42.180Z,1008.73
2023-02-11T11:04:43.591Z,1008.71
2023-02-11T11:05:44.767Z,1008.67
2023-02-11T11:06:46.343Z,1008.66
2023-02-11T11:07:47.572Z,1008.64
2023-02-11T11:08:48.996Z,1008.59
2023-02-11T11:09:50.196Z,1008.59
2023-02-11T11:10:52.642Z,1008.56
2023-02-11T11:11:54.009Z,1008.53
2023-02-11T11:12:55.389Z,1008.5
2023-02-11T11:13:56.830Z,1008.54
2023-02-11T11:14:58.129Z,1008.5
2023-02-11T11:15:59.453Z,1008.57
2023-02-11T11:17:00.799Z,1008.56
2023-02-11T11:18:23.738Z,1008.55
2023-02-11T11:19:02.948Z,1008.55
2023-02-11T11:20:04.216Z,1008.51
2023-02-11T11:21:05.419Z,1008.51
2023-02-11T11:22:06.618Z,1008.46
2023-02-11T11:23:07.821Z,1008.45
2023-02-11T11:24:09.143Z,1008.42
2023-02-11T11:25:10.459Z,1008.4
2023-02-11T11:26:11.657Z,1008.42
2023-02-11T11:27:12.741Z,1008.42
2023-02-11T11:28:14.256Z,1008.37
2023-02-11T11:29:15.316Z,1008.35
2023-02-11T11:30:16.942Z,1008.34
2023-02-11T11:31:18.715Z,1008.35
2023-02-11T11:32:21.228Z,1008.36
2023-02-11T11:33:22.514Z,1008.3
2023-02-11T11:34:23.666Z,1008.32
2023-02-11T11:35:25.107Z,1008.31
2023-02-11T11:36:26.546Z,1008.26
2023-02-11T11:37:28.103Z,1008.32
2023-02-11T11:38:29.302Z,1008.3
2023-02-11T11:39:30.745Z,1008.3
2023-02-11T11:40:31.875Z,1008.28
2023-02-11T11:41:33.047Z,1008.26
2023-02-11T11:42:34.281Z,1008.27
2023-02-11T11:43:35.456Z,1008.25
2023-02-11T11:44:36.624Z,1008.12
2023-02-11T11:45:37.943Z,1008.12
2023-02-11T11:46:39.620Z,1008.09
2023-02-11T11:47:40.977Z,1008.1
2023-02-11T11:48:42.313Z,1008.15
2023-02-11T11:49:43.403Z,1008.21
2023-02-11T11:50:44.704Z,1008.13
2023-02-11T11:51:45.987Z,1008.12
2023-02-11T11:52:47.358Z,1008.07
2023-02-11T11:53:48.448Z,1008.12
2023-02-11T11:54:49.712Z,1008.07
2023-02-11T11:55:51.159Z,1008.07
2023-02-11T11:56:52.233Z,1008.05
2023-02-11T11:57:53.583Z,1008.08
2023-02-11T11:58:54.875Z,1008.11
2023-02-11T11:59:56.553Z,1008.12
2023-02-11T12:00:57.753Z,1008.08
2023-02-11T12:01:59.251Z,1008.05
2023-02-11T12:03:00.705Z,1008.06
2023-02-11T12:04:01.997Z,1008.04
2023-02-11T12:05:03.285Z,1008.06
2023-02-11T12:06:04.595Z,1007.98
2023-02-11T12:07:05.915Z,1007.99
2023-02-11T12:08:07.116Z,1007.93
2023-02-11T12:09:08.556Z,1007.92
2023-02-11T12:10:09.786Z,1007.94
2023-02-11T12:11:11.208Z,1007.95
2023-02-11T12:12:12.645Z,1007.99
2023-02-11T12:13:13.839Z,1007.95
2023-02-11T12:14:15.288Z,1007.98
2023-02-11T12:15:16.488Z,1007.93
2023-02-11T12:16:17.949Z,1007.95
2023-02-11T12:17:19.364Z,1007.93
2023-02-11T12:18:20.755Z,1007.96
2023-02-11T12:19:22.005Z,1008
2023-02-11T12:20:23.442Z,1007.92
2023-02-11T12:21:24.762Z,1007.91
2023-02-11T12:22:25.846Z,1007.89
2023-02-11T12:23:26.924Z,1007.95
2023-02-11T12:24:28.010Z,1007.91